createdAt,value
2023-02-15T00:00:13.157Z,7.00
2023-02-15T00:01:18.341Z,7.00
2023-02-15T00:02:13.345Z,7.00
2023-02-15T00:03:13.609Z,6.80
2023-02-15T00:04:13.631Z,7.00
2023-02-15T00:05:13.587Z,6.90
2023-02-15T00:06:18.618Z,6.90
2023-02-15T00:07:13.641Z,7.10
2023-02-15T00:08:13.755Z,7.20
2023-02-15T00:09:13.810Z,7.20
2023-02-15T00:10:13.742Z,7.10
2023-02-15T00:11:13.764Z,7.00
2023-02-15T00:12:13.948Z,6.90
2023-02-15T00:13:18.398Z,6.90
2023-02-15T00:14:18.467Z,7.00
2023-02-15T00:15:18.678Z,7.00
2023-02-15T00:16:13.721Z,6.80
2023-02-15T00:17:13.784Z,6.80
2023-02-15T00:18:14.143Z,6.80
2023-02-15T00:19:18.365Z,7.00
2023-02-15T00:20:13.418Z,7.00
2023-02-15T00:21:13.393Z,7.00
2023-02-15T00:22:13.336Z,7.00
2023-02-15T00:23:13.432Z,6.90
2023-02-15T00:24:18.473Z,6.90
2023-02-15T00:25:13.611Z,6.60
2023-02-15T00:26:13.690Z,6.80
2023-02-15T00:27:13.612Z,6.70
2023-02-15T00:28:13.696Z,6.70
2023-02-15T00:29:18.911Z,6.50
2023-02-15T00:30:46.341Z,6.50
2023-02-15T00:31:13.942Z,6.50
2023-02-15T00:32:12.947Z,6.30
2023-02-15T00:33:12.854Z,6.40
2023-02-15T00:34:13.988Z,6.40
2023-02-15T00:35:18.261Z,6.30
2023-02-15T00:36:13.163Z,6.50
2023-02-15T00:37:13.162Z,6.40
2023-02-15T00:38:13.195Z,6.60
2023-02-15T00:39:13.296Z,6.50
2023-02-15T00:40:13.303Z,6.50
2023-02-15T00:41:13.172Z,6.50
2023-02-15T00:42:13.126Z,6.40
2023-02-15T00:43:13.136Z,6.30
2023-02-15T00:44:13.111Z,6.40
2023-02-15T00:45:13.141Z,6.40
2023-02-15T00:46:13.184Z,6.50
2023-02-15T00:47:13.215Z,6.60
2023-02-15T00:48:18.178Z,6.70
2023-02-15T00:49:13.887Z,6.60
2023-02-15T00:50:13.051Z,6.70
2023-02-15T00:51:13.155Z,6.70
2023-02-15T00:52:13.093Z,6.80
2023-02-15T00:53:12.993Z,6.80
2023-02-15T00:54:17.976Z,6.70
2023-02-15T00:55:13.097Z,6.50
2023-02-15T00:56:13.124Z,6.50
2023-02-15T00:57:13.084Z,6.50
2023-02-15T00:58:13.041Z,6.50
2023-02-15T00:59:12.955Z,6.50
2023-02-15T01:00:18.284Z,6.40
2023-02-15T01:01:13.633Z,6.20
2023-02-15T01:02:23.865Z,6.40
2023-02-15T01:03:14.187Z,6.50
2023-02-15T01:04:13.289Z,6.50
2023-02-15T01:05:13.271Z,6.40
2023-02-15T01:06:13.300Z,6.30
2023-02-15T01:07:13.214Z,6.20
2023-02-15T01:08:13.125Z,6.10
2023-02-15T01:09:13.030Z,6.30
2023-02-15T01:10:13.255Z,6.30
2023-02-15T01:11:13.254Z,6.40
2023-02-15T01:12:13.410Z,6.50
2023-02-15T01:13:13.567Z,6.50
2023-02-15T01:14:13.833Z,6.10
2023-02-15T01:15:13.750Z,6.40
2023-02-15T01:16:14.314Z,6.50
2023-02-15T01:17:13.216Z,6.60
2023-02-15T01:18:13.297Z,6.70
2023-02-15T01:19:18.390Z,6.70
2023-02-15T01:20:13.436Z,6.90
2023-02-15T01:21:13.596Z,6.80
2023-02-15T01:22:13.972Z,6.90
2023-02-15T01:23:13.149Z,6.90
2023-02-15T01:24:13.327Z,6.70
2023-02-15T01:25:13.456Z,6.60
2023-02-15T01:26:14.035Z,6.80
2023-02-15T01:27:13.280Z,6.90
2023-02-15T01:28:13.178Z,6.80
2023-02-15T01:29:13.749Z,6.30
2023-02-15T01:30:18.827Z,6.30
2023-02-15T01:31:13.916Z,6.60
2023-02-15T01:32:17.969Z,6.60
2023-02-15T01:33:12.916Z,6.30
2023-02-15T01:34:13.329Z,6.30
2023-02-15T01:35:13.540Z,6.30
2023-02-15T01:36:13.740Z,6.30
2023-02-15T01:37:14.186Z,6.50
2023-02-15T01:38:13.266Z,6.50
2023-02-15T01:39:14.389Z,6.50
2023-02-15T01:40:13.374Z,6.50
2023-02-15T01:41:13.908Z,6.50
2023-02-15T01:42:13.095Z,6.50
2023-02-15T01:43:13.822Z,6.10
2023-02-15T01:44:14.215Z,6.00
2023-02-15T01:45:13.240Z,6.20
2023-02-15T01:46:13.551Z,6.20
2023-02-15T01:47:13.882Z,6.40
2023-02-15T01:48:19.112Z,6.50
2023-02-15T01:49:13.239Z,6.70
2023-02-15T01:50:13.327Z,6.60
2023-02-15T01:51:13.559Z,6.60
2023-02-15T01:52:13.563Z,6.50
2023-02-15T01:53:13.872Z,6.50
2023-02-15T01:54:14.908Z,6.40
2023-02-15T01:55:13.061Z,6.40
2023-02-15T01:56:13.085Z,6.40
2023-02-15T01:57:13.078Z,6.30
2023-02-15T01:58:17.964Z,6.10
2023-02-15T01:59:12.899Z,5.70
2023-02-15T02:00:17.846Z,5.60
2023-02-15T02:01:13.897Z,5.80
2023-02-15T02:02:13.049Z,5.60
2023-02-15T02:03:13.048Z,5.50
2023-02-15T02:04:13.198Z,5.50
2023-02-15T02:05:13.292Z,5.60
2023-02-15T02:06:13.480Z,5.70
2023-02-15T02:07:13.787Z,5.80
2023-02-15T02:08:13.768Z,5.70
2023-02-15T02:09:13.769Z,5.80
2023-02-15T02:10:13.886Z,6.10
2023-02-15T02:11:18.072Z,6.10
2023-02-15T02:12:13.396Z,6.00
2023-02-15T02:13:14.822Z,5.90
2023-02-15T02:14:13.759Z,5.70
2023-02-15T02:15:13.676Z,5.60
2023-02-15T02:16:13.658Z,5.70
2023-02-15T02:17:13.722Z,5.70
2023-02-15T02:18:13.679Z,5.70
2023-02-15T02:19:13.567Z,5.60
2023-02-15T02:20:13.457Z,5.70
2023-02-15T02:21:13.639Z,5.70
2023-02-15T02:22:13.598Z,5.60
2023-02-15T02:23:13.481Z,5.50
2023-02-15T02:24:13.535Z,5.50
2023-02-15T02:25:13.497Z,5.50
2023-02-15T02:26:13.429Z,5.50
2023-02-15T02:27:13.251Z,5.40
2023-02-15T02:28:13.257Z,5.40
2023-02-15T02:29:13.252Z,5.00
2023-02-15T02:30:13.270Z,5.30
2023-02-15T02:31:13.361Z,5.40
2023-02-15T02:32:13.283Z,5.40
2023-02-15T02:33:13.227Z,5.40
2023-02-15T02:34:13.348Z,5.40
2023-02-15T02:35:13.536Z,5.50
2023-02-15T02:36:13.513Z,5.50
2023-02-15T02:37:13.763Z,5.50
2023-02-15T02:38:13.645Z,5.40
2023-02-15T02:39:13.962Z,5.30
2023-02-15T02:40:12.958Z,5.20
2023-02-15T02:41:13.204Z,5.10
2023-02-15T02:42:13.264Z,5.30
2023-02-15T02:43:13.349Z,5.50
2023-02-15T02:44:13.522Z,5.50
2023-02-15T02:45:18.610Z,5.70
2023-02-15T02:46:14.040Z,5.70
2023-02-15T02:47:13.004Z,5.60
2023-02-15T02:48:13.268Z,5.60
2023-02-15T02:49:13.541Z,5.70
2023-02-15T02:50:13.638Z,5.60
2023-02-15T02:51:13.866Z,5.70
2023-02-15T02:52:13.837Z,5.80
2023-02-15T02:53:13.985Z,5.70
2023-02-15T02:54:13.116Z,5.50
2023-02-15T02:55:12.984Z,5.40
2023-02-15T02:56:12.913Z,5.30
2023-02-15T02:57:12.804Z,5.20
2023-02-15T02:58:13.992Z,5.10
2023-02-15T02:59:13.142Z,5.10
2023-02-15T03:00:13.092Z,5.20
2023-02-15T03:01:13.190Z,5.10
2023-02-15T03:02:18.331Z,5.10
2023-02-15T03:03:13.307Z,5.00
2023-02-15T03:04:18.197Z,5.00
2023-02-15T03:05:13.170Z,4.90
2023-02-15T03:06:12.969Z,4.90
2023-02-15T03:07:13.042Z,5.00
2023-02-15T03:08:13.153Z,4.90
2023-02-15T03:09:13.244Z,4.80
2023-02-15T03:10:13.468Z,5.00
2023-02-15T03:11:13.381Z,5.00
2023-02-15T03:12:13.322Z,5.10
2023-02-15T03:13:13.157Z,5.20
2023-02-15T03:14:13.047Z,5.20
2023-02-15T03:15:12.927Z,5.20
2023-02-15T03:16:12.864Z,5.10
2023-02-15T03:17:12.887Z,5.20
2023-02-15T03:18:13.939Z,5.10
2023-02-15T03:19:12.938Z,5.00
2023-02-15T03:20:13.815Z,5.00
2023-02-15T03:21:14.134Z,5.10
2023-02-15T03:22:13.366Z,5.20
2023-02-15T03:23:13.351Z,5.30
2023-02-15T03:24:16.329Z,5.30
2023-02-15T03:25:13.611Z,5.20
2023-02-15T03:26:13.555Z,5.30
2023-02-15T03:27:13.668Z,5.30
2023-02-15T03:28:13.838Z,5.40
2023-02-15T03:29:18.863Z,5.30
2023-02-15T03:30:13.855Z,5.40
2023-02-15T03:31:18.990Z,5.40
2023-02-15T03:32:13.253Z,5.50
2023-02-15T03:33:13.352Z,5.60
2023-02-15T03:34:13.244Z,5.70
2023-02-15T03:35:13.190Z,5.70
2023-02-15T03:36:13.174Z,5.70
2023-02-15T03:37:13.278Z,5.70
2023-02-15T03:38:13.497Z,5.60
2023-02-15T03:39:13.407Z,5.60
2023-02-15T03:40:13.448Z,5.50
2023-02-15T03:41:13.548Z,5.40
2023-02-15T03:42:13.470Z,5.40
2023-02-15T03:43:14.000Z,5.30
2023-02-15T03:44:12.917Z,5.20
2023-02-15T03:45:12.851Z,5.20
2023-02-15T03:46:13.774Z,5.20
2023-02-15T03:47:13.655Z,5.10
2023-02-15T03:48:14.139Z,5.20
2023-02-15T03:49:13.168Z,5.10
2023-02-15T03:50:13.142Z,4.90
2023-02-15T03:51:13.152Z,5.00
2023-02-15T03:52:13.104Z,4.90
2023-02-15T03:53:18.714Z,5.00
2023-02-15T03:54:13.505Z,5.00
2023-02-15T03:55:13.468Z,5.00
2023-02-15T03:56:13.520Z,4.90
2023-02-15T03:57:13.819Z,5.10
2023-02-15T03:58:13.882Z,5.30
2023-02-15T03:59:13.847Z,5.30
2023-02-15T04:00:13.920Z,5.30
2023-02-15T04:01:13.376Z,5.30
2023-02-15T04:02:13.742Z,5.30
2023-02-15T04:03:13.930Z,5.30
2023-02-15T04:04:12.811Z,5.20
2023-02-15T04:05:19.355Z,5.50
2023-02-15T04:06:13.384Z,5.60
2023-02-15T04:07:13.397Z,5.70
2023-02-15T04:08:13.433Z,5.80
2023-02-15T04:09:13.349Z,5.60
2023-02-15T04:10:13.435Z,5.40
2023-02-15T04:11:13.375Z,5.60
2023-02-15T04:12:13.528Z,5.70
2023-02-15T04:13:13.568Z,5.70
2023-02-15T04:14:14.057Z,5.60
2023-02-15T04:15:17.985Z,5.20
2023-02-15T04:16:19.300Z,5.30
2023-02-15T04:17:13.276Z,5.30
2023-02-15T04:18:13.177Z,5.30
2023-02-15T04:19:13.121Z,5.30
2023-02-15T04:20:13.133Z,5.40
2023-02-15T04:21:18.178Z,5.50
2023-02-15T04:22:13.143Z,5.40
2023-02-15T04:23:18.362Z,5.40
2023-02-15T04:24:13.425Z,5.40
2023-02-15T04:25:18.364Z,5.10
2023-02-15T04:26:13.406Z,5.10
2023-02-15T04:27:13.661Z,5.20
2023-02-15T04:28:13.812Z,5.20
2023-02-15T04:29:13.827Z,5.10
2023-02-15T04:30:14.121Z,5.20
2023-02-15T04:31:13.325Z,5.00
2023-02-15T04:32:13.481Z,5.10
2023-02-15T04:33:13.579Z,5.10
2023-02-15T04:34:13.656Z,5.00
2023-02-15T04:35:18.635Z,5.00
2023-02-15T04:36:13.496Z,4.90
2023-02-15T04:37:13.419Z,4.90
2023-02-15T04:38:13.502Z,4.90
2023-02-15T04:39:13.465Z,4.80
2023-02-15T04:40:13.445Z,4.70
2023-02-15T04:41:13.449Z,4.60
2023-02-15T04:42:13.422Z,4.30
2023-02-15T04:43:13.552Z,4.60
2023-02-15T04:44:13.578Z,4.40
2023-02-15T04:45:13.992Z,4.50
2023-02-15T04:46:13.175Z,4.30
2023-02-15T04:47:13.120Z,4.60
2023-02-15T04:48:13.093Z,4.50
2023-02-15T04:49:13.279Z,4.40
2023-02-15T04:50:18.403Z,4.50
2023-02-15T04:51:13.331Z,4.70
2023-02-15T04:52:13.162Z,4.80
2023-02-15T04:53:13.232Z,4.80
2023-02-15T04:54:13.193Z,4.80
2023-02-15T04:55:13.201Z,4.90
2023-02-15T04:56:13.601Z,5.00
2023-02-15T04:57:13.771Z,5.00
2023-02-15T04:58:14.831Z,4.80
2023-02-15T04:59:13.773Z,4.80
2023-02-15T05:00:13.830Z,4.70
2023-02-15T05:01:13.997Z,4.70
2023-02-15T05:02:13.325Z,4.70
2023-02-15T05:03:13.216Z,4.80
2023-02-15T05:04:13.274Z,4.90
2023-02-15T05:05:13.244Z,5.00
2023-02-15T05:06:13.425Z,5.10
2023-02-15T05:07:13.454Z,5.00
2023-02-15T05:08:13.836Z,5.00
2023-02-15T05:09:13.798Z,5.00
2023-02-15T05:10:15.684Z,5.00
2023-02-15T05:11:13.170Z,4.70
2023-02-15T05:12:13.225Z,4.90
2023-02-15T05:13:13.191Z,4.90
2023-02-15T05:14:14.069Z,4.90
2023-02-15T05:15:13.371Z,4.90
2023-02-15T05:16:13.564Z,5.00
2023-02-15T05:17:13.929Z,5.00
2023-02-15T05:18:13.114Z,4.90
2023-02-15T05:19:13.246Z,4.80
2023-02-15T05:20:13.228Z,4.80
2023-02-15T05:21:13.243Z,4.80
2023-02-15T05:22:13.196Z,4.90
2023-02-15T05:23:13.144Z,5.00
2023-02-15T05:24:13.398Z,5.00
2023-02-15T05:25:13.714Z,5.00
2023-02-15T05:26:13.989Z,5.00
2023-02-15T05:27:13.059Z,5.00
2023-02-15T05:28:13.183Z,4.90
2023-02-15T05:29:13.192Z,4.80
2023-02-15T05:30:13.235Z,4.90
2023-02-15T05:31:13.394Z,4.70
2023-02-15T05:32:13.975Z,4.80
2023-02-15T05:34:14.179Z,4.80
2023-02-15T05:35:13.411Z,4.70
2023-02-15T05:36:13.725Z,4.50
2023-02-15T05:37:13.794Z,4.70
2023-02-15T05:38:13.880Z,4.70
2023-02-15T05:39:14.052Z,4.70
2023-02-15T05:40:12.971Z,4.70
2023-02-15T05:41:12.870Z,4.60
2023-02-15T05:42:13.861Z,4.60
2023-02-15T05:43:13.824Z,4.50
2023-02-15T05:44:13.822Z,4.40
2023-02-15T05:45:13.637Z,4.50
2023-02-15T05:46:13.699Z,4.50
2023-02-15T05:47:13.886Z,4.50
2023-02-15T05:48:13.974Z,4.40
2023-02-15T05:49:12.954Z,4.40
2023-02-15T05:50:12.983Z,4.40
2023-02-15T05:51:12.934Z,4.40
2023-02-15T05:52:13.043Z,4.60
2023-02-15T05:53:13.305Z,4.60
2023-02-15T05:54:13.784Z,4.60
2023-02-15T05:55:13.755Z,4.50
2023-02-15T05:56:14.063Z,4.50
2023-02-15T05:57:13.253Z,4.50
2023-02-15T05:58:13.179Z,4.50
2023-02-15T05:59:13.209Z,4.70
2023-02-15T06:00:13.131Z,4.80
2023-02-15T06:01:13.417Z,4.80
2023-02-15T06:02:24.572Z,4.80
2023-02-15T06:03:13.685Z,4.80
2023-02-15T06:04:13.524Z,4.70
2023-02-15T06:05:13.572Z,4.80
2023-02-15T06:06:13.650Z,4.90
2023-02-15T06:07:13.645Z,4.90
2023-02-15T06:08:13.673Z,4.90
2023-02-15T06:09:13.960Z,4.90
2023-02-15T06:10:13.085Z,4.90
2023-02-15T06:11:13.346Z,4.80
2023-02-15T06:12:13.378Z,4.90
2023-02-15T06:13:13.565Z,4.80
2023-02-15T06:14:13.665Z,4.70
2023-02-15T06:15:13.624Z,4.80
2023-02-15T06:16:13.765Z,4.80
2023-02-15T06:17:13.741Z,4.60
2023-02-15T06:18:13.949Z,4.60
2023-02-15T06:19:13.165Z,4.50
2023-02-15T06:20:13.035Z,4.60
2023-02-15T06:21:13.127Z,4.70
2023-02-15T06:22:13.093Z,4.70
2023-02-15T06:23:13.068Z,4.50
2023-02-15T06:24:13.231Z,4.50
2023-02-15T06:25:13.386Z,4.50
2023-02-15T06:26:13.296Z,4.60
2023-02-15T06:27:13.272Z,4.60
2023-02-15T06:28:13.190Z,4.70
2023-02-15T06:29:14.545Z,4.80
2023-02-15T06:30:13.814Z,4.80
2023-02-15T06:31:19.114Z,4.70
2023-02-15T06:32:13.170Z,4.80
2023-02-15T06:33:13.577Z,4.90
2023-02-15T06:34:13.818Z,5.00
2023-02-15T06:35:13.861Z,5.00
2023-02-15T06:36:13.940Z,5.10
2023-02-15T06:37:12.997Z,5.20
2023-02-15T06:38:13.404Z,5.20
2023-02-15T06:39:13.340Z,5.20
2023-02-15T06:40:13.213Z,5.20
2023-02-15T06:41:18.189Z,5.10
2023-02-15T06:42:13.225Z,5.00
2023-02-15T06:43:13.339Z,5.00
2023-02-15T06:44:13.443Z,4.70
2023-02-15T06:45:13.602Z,4.80
2023-02-15T06:46:13.710Z,4.90
2023-02-15T06:47:13.767Z,4.90
2023-02-15T06:48:13.719Z,4.90
2023-02-15T06:49:14.067Z,5.00
2023-02-15T06:50:13.146Z,5.00
2023-02-15T06:51:13.416Z,5.00
2023-02-15T06:52:14.348Z,4.90
2023-02-15T06:53:13.402Z,5.00
2023-02-15T06:54:13.463Z,5.10
2023-02-15T06:55:13.617Z,5.10
2023-02-15T06:56:13.638Z,5.00
2023-02-15T06:57:13.567Z,5.00
2023-02-15T06:58:13.618Z,4.90
2023-02-15T06:59:13.721Z,4.90
2023-02-15T07:00:13.575Z,4.80
2023-02-15T07:01:13.581Z,4.80
2023-02-15T07:02:13.603Z,4.90
2023-02-15T07:03:13.539Z,4.80
2023-02-15T07:04:13.548Z,4.90
2023-02-15T07:05:13.440Z,5.00
2023-02-15T07:06:13.494Z,5.00
2023-02-15T07:07:13.704Z,5.10
2023-02-15T07:08:13.817Z,5.10
2023-02-15T07:09:14.088Z,5.00
2023-02-15T07:10:12.998Z,5.20
2023-02-15T07:11:13.042Z,5.20
2023-02-15T07:12:13.122Z,5.10
2023-02-15T07:13:13.037Z,5.20
2023-02-15T07:14:12.960Z,5.30
2023-02-15T07:15:13.071Z,5.40
2023-02-15T07:16:13.090Z,5.30
2023-02-15T07:17:34.479Z,5.20
2023-02-15T07:18:13.514Z,5.40
2023-02-15T07:19:13.450Z,5.60
2023-02-15T07:20:13.438Z,5.40
2023-02-15T07:21:13.627Z,5.50
2023-02-15T07:22:13.871Z,5.50
2023-02-15T07:23:14.064Z,5.50
2023-02-15T07:24:13.348Z,5.60
2023-02-15T07:25:13.430Z,5.60
2023-02-15T07:26:13.725Z,5.70
2023-02-15T07:27:13.768Z,5.40
2023-02-15T07:28:13.288Z,5.30
2023-02-15T07:29:13.375Z,5.20
2023-02-15T07:30:13.460Z,5.20
2023-02-15T07:31:13.496Z,5.50
2023-02-15T07:32:13.682Z,5.60
2023-02-15T07:33:13.666Z,5.60
2023-02-15T07:34:13.890Z,5.30
2023-02-15T07:35:13.754Z,5.10
2023-02-15T07:36:13.729Z,5.10
2023-02-15T07:37:13.786Z,5.60
2023-02-15T07:38:13.838Z,6.00
2023-02-15T07:39:13.979Z,6.00
2023-02-15T07:40:13.170Z,5.90
2023-02-15T07:41:13.308Z,5.50
2023-02-15T07:42:13.271Z,5.40
2023-02-15T07:43:13.667Z,5.70
2023-02-15T07:44:13.925Z,5.80
2023-02-15T07:45:13.047Z,6.00
2023-02-15T07:46:13.361Z,6.30
2023-02-15T07:47:13.313Z,6.20
2023-02-15T07:48:13.292Z,6.40
2023-02-15T07:49:13.569Z,6.50
2023-02-15T07:50:13.807Z,6.40
2023-02-15T07:51:14.045Z,6.30
2023-02-15T07:52:13.440Z,6.30
2023-02-15T07:53:14.445Z,6.40
2023-02-15T07:54:13.903Z,6.30
2023-02-15T07:55:13.013Z,6.10
2023-02-15T07:56:13.105Z,6.30
2023-02-15T07:57:13.108Z,6.10
2023-02-15T07:58:13.109Z,6.20
2023-02-15T07:59:13.168Z,6.40
2023-02-15T08:00:13.130Z,6.60
2023-02-15T08:01:13.036Z,6.60
2023-02-15T08:02:13.147Z,6.50
2023-02-15T08:03:13.337Z,6.50
2023-02-15T08:04:13.342Z,6.60
2023-02-15T08:05:13.735Z,6.80
2023-02-15T08:06:14.153Z,6.80
2023-02-15T08:07:13.313Z,6.80
2023-02-15T08:08:13.744Z,6.80
2023-02-15T08:09:14.081Z,7.00
2023-02-15T08:10:13.161Z,6.80
2023-02-15T08:11:13.239Z,6.90
2023-02-15T08:12:13.504Z,6.80
2023-02-15T08:13:13.645Z,7.00
2023-02-15T08:14:13.867Z,7.00
2023-02-15T08:15:14.081Z,6.90
2023-02-15T08:16:14.380Z,7.00
2023-02-15T08:17:13.572Z,7.10
2023-02-15T08:18:13.775Z,7.20
2023-02-15T08:19:13.686Z,7.20
2023-02-15T08:20:13.687Z,7.20
2023-02-15T08:21:13.774Z,7.30
2023-02-15T08:22:14.216Z,7.40
2023-02-15T08:23:13.092Z,7.40
2023-02-15T08:24:13.221Z,7.30
2023-02-15T08:25:13.154Z,7.20
2023-02-15T08:26:13.204Z,7.40
2023-02-15T08:27:13.095Z,7.40
2023-02-15T08:28:13.146Z,7.50
2023-02-15T08:29:13.124Z,7.50
2023-02-15T08:30:13.249Z,7.40
2023-02-15T08:31:13.257Z,7.30
2023-02-15T08:32:13.425Z,7.20
2023-02-15T08:33:13.455Z,7.10
2023-02-15T08:34:13.649Z,7.20
2023-02-15T08:35:13.794Z,7.30
2023-02-15T08:36:13.704Z,7.30
2023-02-15T08:37:13.842Z,7.40
2023-02-15T08:38:14.271Z,7.50
2023-02-15T08:39:13.149Z,7.50
2023-02-15T08:40:13.367Z,7.40
2023-02-15T08:41:13.285Z,7.70
2023-02-15T08:42:13.186Z,7.80
2023-02-15T08:43:13.038Z,7.60
2023-02-15T08:44:13.004Z,7.40
2023-02-15T08:45:12.901Z,7.80
2023-02-15T08:46:13.012Z,8.10
2023-02-15T08:47:13.066Z,8.00
2023-02-15T08:48:13.192Z,8.00
2023-02-15T08:49:13.492Z,8.20
2023-02-15T08:50:13.341Z,8.10
2023-02-15T08:51:13.251Z,8.40
2023-02-15T08:52:13.276Z,8.20
2023-02-15T08:53:14.296Z,8.00
2023-02-15T08:54:13.471Z,8.30
2023-02-15T08:55:13.465Z,8.50
2023-02-15T08:56:13.604Z,8.80
2023-02-15T08:57:13.621Z,8.90
2023-02-15T08:58:13.703Z,9.00
2023-02-15T08:59:13.770Z,9.00
2023-02-15T09:00:14.805Z,8.90
2023-02-15T09:01:13.836Z,9.10
2023-02-15T09:02:14.191Z,9.00
2023-02-15T09:03:13.578Z,9.00
2023-02-15T09:04:13.705Z,9.10
2023-02-15T09:05:13.912Z,9.00
2023-02-15T09:06:13.301Z,8.90
2023-02-15T09:07:13.626Z,9.10
2023-02-15T09:08:13.729Z,9.00
2023-02-15T09:09:14.184Z,9.00
2023-02-15T09:10:13.180Z,9.10
2023-02-15T09:11:13.171Z,9.10
2023-02-15T09:12:13.201Z,9.20
2023-02-15T09:13:13.234Z,9.40
2023-02-15T09:14:13.392Z,9.50
2023-02-15T09:15:13.313Z,9.70
2023-02-15T09:16:13.486Z,9.60
2023-02-15T09:17:16.012Z,9.70
2023-02-15T09:18:13.295Z,9.60
2023-02-15T09:19:13.364Z,9.90
2023-02-15T09:20:13.592Z,9.70
2023-02-15T09:21:13.709Z,9.90
2023-02-15T09:22:14.297Z,10.00
2023-02-15T09:23:26.406Z,10.10
2023-02-15T09:24:13.090Z,10.10
2023-02-15T09:25:13.040Z,10.10
2023-02-15T09:26:13.444Z,10.20
2023-02-15T09:27:13.851Z,10.10
2023-02-15T09:28:14.366Z,10.10
2023-02-15T09:29:13.446Z,10.10
2023-02-15T09:30:13.621Z,10.40
2023-02-15T09:31:13.809Z,10.00
2023-02-15T09:32:13.787Z,10.40
2023-02-15T09:33:13.770Z,10.40
2023-02-15T09:34:13.716Z,10.20
2023-02-15T09:35:13.693Z,10.40
2023-02-15T09:36:14.120Z,10.60
2023-02-15T09:37:13.121Z,10.70
2023-02-15T09:38:13.212Z,10.80
2023-02-15T09:39:13.071Z,10.90
2023-02-15T09:40:13.049Z,10.80
2023-02-15T09:41:13.289Z,10.90
2023-02-15T09:42:13.274Z,10.90
2023-02-15T09:43:13.335Z,11.10
2023-02-15T09:44:13.681Z,11.00
2023-02-15T09:45:13.695Z,11.20
2023-02-15T09:46:13.827Z,11.30
2023-02-15T09:47:14.292Z,11.20
2023-02-15T09:48:13.561Z,10.90
2023-02-15T09:49:13.800Z,10.80
2023-02-15T09:50:14.130Z,11.10
2023-02-15T09:51:13.036Z,10.90
2023-02-15T09:52:13.358Z,11.40
2023-02-15T09:53:13.582Z,11.40
2023-02-15T09:54:13.701Z,11.50
2023-02-15T09:55:13.730Z,11.60
2023-02-15T09:56:13.957Z,11.70
2023-02-15T09:57:12.929Z,11.90
2023-02-15T09:58:13.009Z,11.90
2023-02-15T09:59:13.128Z,12.40
2023-02-15T10:00:13.072Z,12.50
2023-02-15T10:01:13.030Z,12.40
2023-02-15T10:02:13.536Z,12.10
2023-02-15T10:03:13.933Z,12.40
2023-02-15T10:04:13.363Z,12.50
2023-02-15T10:05:13.880Z,13.10
2023-02-15T10:06:14.163Z,13.70
2023-02-15T10:07:13.281Z,14.20
2023-02-15T10:08:13.367Z,14.50
2023-02-15T10:09:13.616Z,14.40
2023-02-15T10:10:13.648Z,15.20
2023-02-15T10:11:13.858Z,15.10
2023-02-15T10:12:18.944Z,14.70
2023-02-15T10:13:12.904Z,15.30
2023-02-15T10:14:13.023Z,16.00
2023-02-15T10:15:13.098Z,16.30
2023-02-15T10:16:13.507Z,15.10
2023-02-15T10:17:13.881Z,15.10
2023-02-15T10:18:13.256Z,15.90
2023-02-15T10:19:13.718Z,16.50
2023-02-15T10:20:13.778Z,16.30
2023-02-15T10:21:14.071Z,15.50
2023-02-15T10:22:13.285Z,16.40
2023-02-15T10:23:13.497Z,15.80
2023-02-15T10:24:13.765Z,15.90
2023-02-15T10:25:14.049Z,16.90
2023-02-15T10:26:13.223Z,17.40
2023-02-15T10:27:13.216Z,16.70
2023-02-15T10:28:13.445Z,16.50
2023-02-15T10:29:14.053Z,16.50
2023-02-15T10:30:13.212Z,16.30
2023-02-15T10:31:13.580Z,16.40
2023-02-15T10:32:13.739Z,17.20
2023-02-15T10:33:13.829Z,17.20
2023-02-15T10:34:13.939Z,16.30
2023-02-15T10:35:13.345Z,16.10
2023-02-15T10:36:13.822Z,16.80
2023-02-15T10:37:13.933Z,16.10
2023-02-15T10:38:13.700Z,16.70
2023-02-15T10:39:14.672Z,16.80
2023-02-15T10:40:13.651Z,17.30
2023-02-15T10:41:13.616Z,16.40
2023-02-15T10:42:13.576Z,17.40
2023-02-15T10:43:13.524Z,17.80
2023-02-15T10:44:13.437Z,18.00
2023-02-15T10:45:13.518Z,18.30
2023-02-15T10:46:13.574Z,19.10
2023-02-15T10:47:13.620Z,18.30
2023-02-15T10:48:13.479Z,17.80
2023-02-15T10:49:13.603Z,17.00
2023-02-15T10:50:13.670Z,17.60
2023-02-15T10:51:14.091Z,17.10
2023-02-15T10:52:13.404Z,16.90
2023-02-15T10:53:13.433Z,16.60
2023-02-15T10:54:13.518Z,16.80
2023-02-15T10:55:13.790Z,16.90
2023-02-15T10:56:13.742Z,16.80
2023-02-15T10:57:13.724Z,16.60
2023-02-15T10:58:18.896Z,16.40
2023-02-15T10:59:13.143Z,16.40
2023-02-15T11:00:13.222Z,16.20
2023-02-15T11:01:13.780Z,17.00
2023-02-15T11:02:14.190Z,16.50
2023-02-15T11:03:13.453Z,17.40
2023-02-15T11:04:16.063Z,16.80
2023-02-15T11:05:13.288Z,16.60
2023-02-15T11:06:13.655Z,16.30
2023-02-15T11:07:14.515Z,16.70
2023-02-15T11:08:13.735Z,16.50
2023-02-15T11:09:13.949Z,15.90
2023-02-15T11:10:12.891Z,15.90
2023-02-15T11:11:12.895Z,16.00
2023-02-15T11:12:13.150Z,16.10
2023-02-15T11:13:13.386Z,15.90
2023-02-15T11:14:13.331Z,15.80
2023-02-15T11:15:39.153Z,15.80
2023-02-15T11:16:14.926Z,16.30
2023-02-15T11:17:18.273Z,16.60
2023-02-15T11:18:13.203Z,16.70
2023-02-15T11:19:14.326Z,16.20
2023-02-15T11:20:13.366Z,16.20
2023-02-15T11:21:13.321Z,16.80
2023-02-15T11:22:18.582Z,17.30
2023-02-15T11:23:18.522Z,17.00
2023-02-15T11:24:13.644Z,17.30
2023-02-15T11:25:29.089Z,16.60
2023-02-15T11:26:13.270Z,16.80
2023-02-15T11:27:13.478Z,17.30
2023-02-15T11:28:13.406Z,17.30
2023-02-15T11:29:13.340Z,17.20
2023-02-15T11:30:13.620Z,17.40
2023-02-15T11:31:13.768Z,18.70
2023-02-15T11:32:14.025Z,18.50
2023-02-15T11:33:13.151Z,17.10
2023-02-15T11:34:13.028Z,16.60
2023-02-15T11:35:12.975Z,17.80
2023-02-15T11:36:12.914Z,17.00
2023-02-15T11:37:12.918Z,16.50
2023-02-15T11:38:13.221Z,17.60
2023-02-15T11:39:13.269Z,17.00
2023-02-15T11:40:13.275Z,16.60
2023-02-15T11:41:13.125Z,17.80
2023-02-15T11:42:13.215Z,17.60
2023-02-15T11:43:13.246Z,17.30
2023-02-15T11:44:13.305Z,17.20
2023-02-15T11:45:13.219Z,17.00
2023-02-15T11:46:13.169Z,17.10
2023-02-15T11:47:13.158Z,17.60
2023-02-15T11:48:13.455Z,17.80
2023-02-15T11:49:13.569Z,17.70
2023-02-15T11:50:13.845Z,17.30
2023-02-15T11:51:13.772Z,17.80
2023-02-15T11:52:14.109Z,17.80
2023-02-15T11:53:13.294Z,18.10
2023-02-15T11:54:13.496Z,17.90
2023-02-15T11:55:13.870Z,17.60
2023-02-15T11:56:14.329Z,18.40
2023-02-15T11:57:13.901Z,18.10
2023-02-15T11:58:12.839Z,17.40
2023-02-15T11:59:14.600Z,17.30
2023-02-15T12:00:13.582Z,17.40
2023-02-15T12:01:13.647Z,18.10
2023-02-15T12:02:13.638Z,17.80
2023-02-15T12:03:13.945Z,18.40
2023-02-15T12:04:13.012Z,17.70
2023-02-15T12:05:12.972Z,18.30
2023-02-15T12:06:12.986Z,17.00
2023-02-15T12:07:13.470Z,17.00
2023-02-15T12:08:13.511Z,16.70
2023-02-15T12:09:13.861Z,16.70
2023-02-15T12:10:14.039Z,18.10
2023-02-15T12:11:12.979Z,19.10
2023-02-15T12:12:12.954Z,19.70
2023-02-15T12:13:13.108Z,18.50
2023-02-15T12:14:13.420Z,19.40
2023-02-15T12:15:13.513Z,19.60
2023-02-15T12:16:13.848Z,18.10
2023-02-15T12:17:36.204Z,17.20
2023-02-15T12:18:13.905Z,18.20
2023-02-15T12:19:13.104Z,18.60
2023-02-15T12:20:13.090Z,17.90
2023-02-15T12:21:13.458Z,17.40
2023-02-15T12:22:14.236Z,17.40
2023-02-15T12:23:13.361Z,16.90
2023-02-15T12:24:13.757Z,17.40
2023-02-15T12:25:14.106Z,17.90
2023-02-15T12:26:13.250Z,18.90
2023-02-15T12:27:13.388Z,18.50
2023-02-15T12:28:14.107Z,19.40
2023-02-15T12:29:13.623Z,20.40
2023-02-15T12:30:14.138Z,20.70
2023-02-15T12:31:13.566Z,19.30
2023-02-15T12:32:13.918Z,19.40
2023-02-15T12:33:14.440Z,19.40
2023-02-15T12:34:14.473Z,19.80
2023-02-15T12:35:14.075Z,19.80
2023-02-15T12:36:13.210Z,20.30
2023-02-15T12:37:13.483Z,20.70
2023-02-15T12:38:13.562Z,20.00
2023-02-15T12:39:13.803Z,21.00
2023-02-15T12:40:13.858Z,19.00
2023-02-15T12:41:14.315Z,19.40
2023-02-15T12:42:13.409Z,19.20
2023-02-15T12:43:13.701Z,19.10
2023-02-15T12:44:14.668Z,19.90
2023-02-15T12:45:19.258Z,20.30
2023-02-15T12:46:14.074Z,20.60
2023-02-15T12:47:13.540Z,20.50
2023-02-15T12:48:13.998Z,18.90
2023-02-15T12:49:13.660Z,19.00
2023-02-15T12:50:13.787Z,19.00
2023-02-15T12:51:14.060Z,18.80
2023-02-15T12:52:13.579Z,18.00
2023-02-15T12:53:14.004Z,18.00
2023-02-15T12:54:13.026Z,18.40
2023-02-15T12:55:32.527Z,17.70
2023-02-15T12:56:24.037Z,17.90
2023-02-15T12:57:13.777Z,18.10
2023-02-15T12:58:13.855Z,18.10
2023-02-15T12:59:23.217Z,18.60
2023-02-15T13:00:22.481Z,19.50
2023-02-15T13:01:13.478Z,19.90
2023-02-15T13:03:20.909Z,18.20
2023-02-15T13:04:23.323Z,17.80
2023-02-15T13:05:36.419Z,18.80
2023-02-15T13:06:13.558Z,18.90
2023-02-15T13:07:13.638Z,19.30
2023-02-15T13:08:13.733Z,19.50
2023-02-15T13:09:13.924Z,20.00
2023-02-15T13:10:13.224Z,19.30
2023-02-15T13:11:13.302Z,19.10
2023-02-15T13:12:13.460Z,18.40